sensor_id;sensor_type;location;lat;lon;timestamp;P1;durP1;ratioP1;P2;durP2;ratioP2
37049;SDS011;22958;51.232;6.826;2023-01-10T00:00:08;30.43;;;14.57;;
37049;SDS011;22958;51.232;6.826;2023-01-10T00:02:35;37.17;;;15.57;;
37049;SDS011;22958;51.232;6.826;2023-01-10T00:05:00;26.83;;;12.17;;
37049;SDS011;22958;51.232;6.826;2023-01-10T00:07:26;33.73;;;11.27;;
37049;SDS011;22958;51.232;6.826;2023-01-10T00:09:51;28.63;;;8.90;;
37049;SDS011;22958;51.232;6.826;2023-01-10T00:12:17;25.27;;;9.17;;
37049;SDS011;22958;51.232;6.826;2023-01-10T00:15:01;26.85;;;8.65;;
37049;SDS011;22958;51.232;6.826;2023-01-10T00:17:26;22.47;;;9.40;;
37049;SDS011;22958;51.232;6.826;2023-01-10T00:19:52;26.33;;;9.53;;
37049;SDS011;22958;51.232;6.826;2023-01-10T00:22:17;29.83;;;10.87;;
37049;SDS011;22958;51.232;6.826;2023-01-10T00:24:46;30.85;;;10.50;;
37049;SDS011;22958;51.232;6.826;2023-01-10T00:27:12;28.00;;;12.30;;
37049;SDS011;22958;51.232;6.826;2023-01-10T00:29:40;24.67;;;9.98;;
37049;SDS011;22958;51.232;6.826;2023-01-10T00:32:06;29.87;;;9.67;;
37049;SDS011;22958;51.232;6.826;2023-01-10T00:34:31;29.70;;;8.73;;
37049;SDS011;22958;51.232;6.826;2023-01-10T00:39:24;31.17;;;9.70;;
37049;SDS011;22958;51.232;6.826;2023-01-10T00:41:51;34.65;;;9.27;;
37049;SDS011;22958;51.232;6.826;2023-01-10T00:44:35;32.80;;;10.27;;
37049;SDS011;22958;51.232;6.826;2023-01-10T00:47:00;35.87;;;10.97;;
37049;SDS011;22958;51.232;6.826;2023-01-10T00:49:26;27.60;;;9.47;;
37049;SDS011;22958;51.232;6.826;2023-01-10T00:51:51;27.73;;;10.33;;
37049;SDS011;22958;51.232;6.826;2023-01-10T00:54:21;35.25;;;9.85;;
37049;SDS011;22958;51.232;6.826;2023-01-10T00:56:47;26.57;;;9.23;;
37049;SDS011;22958;51.232;6.826;2023-01-10T00:59:13;21.20;;;8.90;;
37049;SDS011;22958;51.232;6.826;2023-01-10T01:01:38;24.50;;;8.43;;
37049;SDS011;22958;51.232;6.826;2023-01-10T01:04:04;30.40;;;7.90;;
37049;SDS011;22958;51.232;6.826;2023-01-10T01:06:29;28.33;;;6.70;;
37049;SDS011;22958;51.232;6.826;2023-01-10T01:08:55;19.27;;;5.80;;
37049;SDS011;22958;51.232;6.826;2023-01-10T01:11:20;21.30;;;4.03;;
37049;SDS011;22958;51.232;6.826;2023-01-10T01:13:46;24.33;;;5.23;;
37049;SDS011;22958;51.232;6.826;2023-01-10T01:16:11;21.33;;;5.87;;
37049;SDS011;22958;51.232;6.826;2023-01-10T01:18:37;22.80;;;3.73;;
37049;SDS011;22958;51.232;6.826;2023-01-10T01:21:02;24.37;;;3.87;;
37049;SDS011;22958;51.232;6.826;2023-01-10T01:23:29;19.98;;;4.07;;
37049;SDS011;22958;51.232;6.826;2023-01-10T01:25:57;19.42;;;3.85;;
37049;SDS011;22958;51.232;6.826;2023-01-10T01:28:23;20.70;;;3.90;;
37049;SDS011;22958;51.232;6.826;2023-01-10T01:30:49;20.07;;;3.27;;
37049;SDS011;22958;51.232;6.826;2023-01-10T01:33:15;13.10;;;3.23;;
37049;SDS011;22958;51.232;6.826;2023-01-10T01:38:07;16.13;;;3.22;;
37049;SDS011;22958;51.232;6.826;2023-01-10T01:40:33;15.30;;;3.57;;
37049;SDS011;22958;51.232;6.826;2023-01-10T01:43:00;19.42;;;3.90;;
37049;SDS011;22958;51.232;6.826;2023-01-10T01:45:30;21.50;;;4.03;;
37049;SDS011;22958;51.232;6.826;2023-01-10T01:48:06;20.88;;;3.67;;
37049;SDS011;22958;51.232;6.826;2023-01-10T01:53:23;27.65;;;4.90;;
37049;SDS011;22958;51.232;6.826;2023-01-10T01:55:56;26.50;;;5.53;;
37049;SDS011;22958;51.232;6.826;2023-01-10T01:58:32;22.02;;;4.13;;
37049;SDS011;22958;51.232;6.826;2023-01-10T02:01:04;11.68;;;2.92;;
37049;SDS011;22958;51.232;6.826;2023-01-10T02:03:29;28.77;;;4.37;;
37049;SDS011;22958;51.232;6.826;2023-01-10T02:05:55;24.98;;;3.53;;
37049;SDS011;22958;51.232;6.826;2023-01-10T02:08:21;14.90;;;3.17;;
37049;SDS011;22958;51.232;6.826;2023-01-10T02:10:54;19.47;;;3.57;;
37049;SDS011;22958;51.232;6.826;2023-01-10T02:13:27;17.30;;;3.40;;
37049;SDS011;22958;51.232;6.826;2023-01-10T02:15:54;22.83;;;4.60;;
37049;SDS011;22958;51.232;6.826;2023-01-10T02:18:19;12.23;;;2.73;;
37049;SDS011;22958;51.232;6.826;2023-01-10T02:23:27;15.73;;;2.92;;
37049;SDS011;22958;51.232;6.826;2023-01-10T02:26:20;34.80;;;3.10;;
37049;SDS011;22958;51.232;6.826;2023-01-10T02:35:23;22.48;;;3.67;;
37049;SDS011;22958;51.232;6.826;2023-01-10T02:43:59;22.40;;;3.35;;
37049;SDS011;22958;51.232;6.826;2023-01-10T02:46:31;14.88;;;3.45;;
37049;SDS011;22958;51.232;6.826;2023-01-10T02:48:59;19.58;;;3.67;;
37049;SDS011;22958;51.232;6.826;2023-01-10T02:51:26;33.13;;;5.30;;
37049;SDS011;22958;51.232;6.826;2023-01-10T02:53:56;26.73;;;4.38;;
37049;SDS011;22958;51.232;6.826;2023-01-10T02:59:14;24.55;;;3.63;;
37049;SDS011;22958;51.232;6.826;2023-01-10T03:02:14;18.60;;;3.55;;
37049;SDS011;22958;51.232;6.826;2023-01-10T03:05:06;26.23;;;3.28;;
37049;SDS011;22958;51.232;6.826;2023-01-10T03:10:34;21.17;;;3.33;;
37049;SDS011;22958;51.232;6.826;2023-01-10T03:15:54;20.43;;;3.97;;
37049;SDS011;22958;51.232;6.826;2023-01-10T03:18:26;16.95;;;3.03;;
37049;SDS011;22958;51.232;6.826;2023-01-10T03:20:57;19.40;;;3.10;;
37049;SDS011;22958;51.232;6.826;2023-01-10T03:23:23;25.63;;;4.20;;
37049;SDS011;22958;51.232;6.826;2023-01-10T03:25:49;28.08;;;3.42;;
37049;SDS011;22958;51.232;6.826;2023-01-10T03:28:18;17.42;;;3.40;;
37049;SDS011;22958;51.232;6.826;2023-01-10T03:30:51;31.45;;;3.33;;
37049;SDS011;22958;51.232;6.826;2023-01-10T03:33:23;20.95;;;3.13;;
37049;SDS011;22958;51.232;6.826;2023-01-10T03:36:03;20.00;;;3.65;;
37049;SDS011;22958;51.232;6.826;2023-01-10T03:39:01;30.40;;;3.80;;
37049;SDS011;22958;51.232;6.826;2023-01-10T03:47:26;20.88;;;3.13;;
37049;SDS011;22958;51.232;6.826;2023-01-10T03:49:59;23.55;;;3.35;;
37049;SDS011;22958;51.232;6.826;2023-01-10T03:52:32;23.13;;;3.33;;
37049;SDS011;22958;51.232;6.826;2023-01-10T03:54:59;25.77;;;3.85;;
37049;SDS011;22958;51.232;6.826;2023-01-10T03:57:26;25.73;;;3.42;;
37049;SDS011;22958;51.232;6.826;2023-01-10T03:59:52;35.53;;;3.83;;
37049;SDS011;22958;51.232;6.826;2023-01-10T04:02:21;27.77;;;3.97;;
37049;SDS011;22958;51.232;6.826;2023-01-10T04:04:49;19.40;;;3.65;;
37049;SDS011;22958;51.232;6.826;2023-01-10T04:07:14;21.77;;;3.10;;
37049;SDS011;22958;51.232;6.826;2023-01-10T04:09:39;19.33;;;2.97;;
37049;SDS011;22958;51.232;6.826;2023-01-10T04:12:05;20.50;;;3.37;;
37049;SDS011;22958;51.232;6.826;2023-01-10T04:14:30;25.10;;;3.13;;
37049;SDS011;22958;51.232;6.826;2023-01-10T04:16:56;13.27;;;3.60;;
37049;SDS011;22958;51.232;6.826;2023-01-10T04:19:22;19.53;;;3.10;;
37049;SDS011;22958;51.232;6.826;2023-01-10T04:21:47;17.60;;;3.20;;
37049;SDS011;22958;51.232;6.826;2023-01-10T04:24:13;19.83;;;3.10;;
37049;SDS011;22958;51.232;6.826;2023-01-10T04:26:38;27.80;;;3.07;;
37049;SDS011;22958;51.232;6.826;2023-01-10T04:29:04;16.33;;;2.73;;
37049;SDS011;22958;51.232;6.826;2023-01-10T04:31:30;15.27;;;3.07;;
37049;SDS011;22958;51.232;6.826;2023-01-10T04:33:55;15.70;;;3.27;;
37049;SDS011;22958;51.232;6.826;2023-01-10T04:36:21;22.83;;;3.10;;
37049;SDS011;22958;51.232;6.826;2023-01-10T04:38:46;16.13;;;3.40;;
37049;SDS011;22958;51.232;6.826;2023-01-10T04:41:12;25.67;;;3.30;;
37049;SDS011;22958;51.232;6.826;2023-01-10T04:43:37;14.80;;;3.43;;
37049;SDS011;22958;51.232;6.826;2023-01-10T04:46:03;25.57;;;4.07;;
37049;SDS011;22958;51.232;6.826;2023-01-10T04:48:29;36.40;;;4.07;;
37049;SDS011;22958;51.232;6.826;2023-01-10T04:50:54;27.33;;;4.17;;
37049;SDS011;22958;51.232;6.826;2023-01-10T04:53:20;29.43;;;4.00;;
37049;SDS011;22958;51.232;6.826;2023-01-10T04:55:46;36.37;;;4.20;;
37049;SDS011;22958;51.232;6.826;2023-01-10T04:58:12;20.98;;;3.00;;
37049;SDS011;22958;51.232;6.826;2023-01-10T05:00:38;33.40;;;3.40;;
37049;SDS011;22958;51.232;6.826;2023-01-10T05:03:04;25.80;;;3.83;;
37049;SDS011;22958;51.232;6.826;2023-01-10T05:05:30;21.70;;;4.20;;
37049;SDS011;22958;51.232;6.826;2023-01-10T05:07:56;30.90;;;4.32;;
37049;SDS011;22958;51.232;6.826;2023-01-10T05:10:21;22.23;;;3.93;;
37049;SDS011;22958;51.232;6.826;2023-01-10T05:12:47;22.43;;;3.87;;
37049;SDS011;22958;51.232;6.826;2023-01-10T05:15:12;35.50;;;4.43;;
37049;SDS011;22958;51.232;6.826;2023-01-10T05:17:38;17.65;;;4.22;;
37049;SDS011;22958;51.232;6.826;2023-01-10T05:20:04;19.43;;;3.20;;
37049;SDS011;22958;51.232;6.826;2023-01-10T05:22:30;35.75;;;4.45;;
37049;SDS011;22958;51.232;6.826;2023-01-10T05:24:56;30.97;;;4.03;;
37049;SDS011;22958;51.232;6.826;2023-01-10T05:27:21;21.70;;;3.60;;
37049;SDS011;22958;51.232;6.826;2023-01-10T05:29:47;26.30;;;3.60;;
37049;SDS011;22958;51.232;6.826;2023-01-10T05:32:13;32.67;;;4.67;;
37049;SDS011;22958;51.232;6.826;2023-01-10T05:34:38;24.67;;;3.10;;
37049;SDS011;22958;51.232;6.826;2023-01-10T05:37:04;32.60;;;3.70;;
37049;SDS011;22958;51.232;6.826;2023-01-10T05:39:29;22.53;;;3.73;;
37049;SDS011;22958;51.232;6.826;2023-01-10T05:41:55;32.23;;;3.83;;
37049;SDS011;22958;51.232;6.826;2023-01-10T05:44:20;28.63;;;4.57;;
37049;SDS011;22958;51.232;6.826;2023-01-10T05:46:46;31.03;;;4.90;;
37049;SDS011;22958;51.232;6.826;2023-01-10T05:49:12;26.10;;;3.60;;
37049;SDS011;22958;51.232;6.826;2023-01-10T05:51:37;28.13;;;3.83;;
37049;SDS011;22958;51.232;6.826;2023-01-10T05:54:03;28.83;;;3.53;;
37049;SDS011;22958;51.232;6.826;2023-01-10T05:56:28;34.43;;;3.53;;
37049;SDS011;22958;51.232;6.826;2023-01-10T05:58:54;34.90;;;4.80;;
37049;SDS011;22958;51.232;6.826;2023-01-10T06:01:20;40.72;;;3.65;;
37049;SDS011;22958;51.232;6.826;2023-01-10T06:03:46;24.13;;;4.00;;
37049;SDS011;22958;51.232;6.826;2023-01-10T06:06:12;31.27;;;4.43;;
37049;SDS011;22958;51.232;6.826;2023-01-10T06:08:38;40.47;;;5.63;;
37049;SDS011;22958;51.232;6.826;2023-01-10T06:11:04;29.27;;;4.38;;
37049;SDS011;22958;51.232;6.826;2023-01-10T06:13:30;27.47;;;3.90;;
37049;SDS011;22958;51.232;6.826;2023-01-10T06:15:56;33.37;;;4.23;;
37049;SDS011;22958;51.232;6.826;2023-01-10T06:18:21;38.30;;;4.83;;
37049;SDS011;22958;51.232;6.826;2023-01-10T06:20:47;41.77;;;4.17;;
37049;SDS011;22958;51.232;6.826;2023-01-10T06:23:12;27.83;;;4.10;;
37049;SDS011;22958;51.232;6.826;2023-01-10T06:25:38;31.40;;;3.97;;
37049;SDS011;22958;51.232;6.826;2023-01-10T06:30:34;36.90;;;5.00;;
37049;SDS011;22958;51.232;6.826;2023-01-10T06:33:04;27.33;;;3.97;;
37049;SDS011;22958;51.232;6.826;2023-01-10T06:35:32;28.50;;;3.97;;
37049;SDS011;22958;51.232;6.826;2023-01-10T06:37:58;33.00;;;4.43;;
37049;SDS011;22958;51.232;6.826;2023-01-10T06:40:24;38.83;;;4.83;;
37049;SDS011;22958;51.232;6.826;2023-01-10T06:42:50;38.63;;;5.18;;
37049;SDS011;22958;51.232;6.826;2023-01-10T06:45:15;44.57;;;5.10;;
37049;SDS011;22958;51.232;6.826;2023-01-10T06:47:41;27.03;;;3.90;;
37049;SDS011;22958;51.232;6.826;2023-01-10T06:50:07;27.33;;;3.83;;
37049;SDS011;22958;51.232;6.826;2023-01-10T06:52:33;32.65;;;5.72;;
37049;SDS011;22958;51.232;6.826;2023-01-10T06:54:59;28.20;;;4.27;;
37049;SDS011;22958;51.232;6.826;2023-01-10T06:57:24;50.57;;;5.33;;
37049;SDS011;22958;51.232;6.826;2023-01-10T06:59:52;29.38;;;4.43;;
37049;SDS011;22958;51.232;6.826;2023-01-10T07:02:18;37.07;;;4.50;;
37049;SDS011;22958;51.232;6.826;2023-01-10T07:04:43;31.30;;;6.27;;
37049;SDS011;22958;51.232;6.826;2023-01-10T07:07:09;29.77;;;4.37;;
37049;SDS011;22958;51.232;6.826;2023-01-10T07:09:35;30.23;;;5.53;;
37049;SDS011;22958;51.232;6.826;2023-01-10T07:12:00;37.13;;;6.00;;
37049;SDS011;22958;51.232;6.826;2023-01-10T07:14:26;27.07;;;4.57;;
37049;SDS011;22958;51.232;6.826;2023-01-10T07:16:51;37.07;;;5.00;;
37049;SDS011;22958;51.232;6.826;2023-01-10T07:19:17;33.87;;;4.90;;
37049;SDS011;22958;51.232;6.826;2023-01-10T07:24:09;43.20;;;4.90;;
37049;SDS011;22958;51.232;6.826;2023-01-10T07:26:35;38.00;;;5.40;;
37049;SDS011;22958;51.232;6.826;2023-01-10T07:29:00;31.10;;;5.73;;
37049;SDS011;22958;51.232;6.826;2023-01-10T07:31:26;47.53;;;5.20;;
37049;SDS011;22958;51.232;6.826;2023-01-10T07:33:51;34.33;;;5.60;;
37049;SDS011;22958;51.232;6.826;2023-01-10T07:36:17;29.00;;;4.90;;
37049;SDS011;22958;51.232;6.826;2023-01-10T07:38:43;38.42;;;5.18;;
37049;SDS011;22958;51.232;6.826;2023-01-10T07:41:09;29.40;;;4.87;;
37049;SDS011;22958;51.232;6.826;2023-01-10T07:43:34;22.80;;;5.63;;
37049;SDS011;22958;51.232;6.826;2023-01-10T07:46:01;46.27;;;5.47;;
37049;SDS011;22958;51.232;6.826;2023-01-10T07:48:28;39.20;;;5.70;;
37049;SDS011;22958;51.232;6.826;2023-01-10T07:50:54;37.60;;;4.65;;
37049;SDS011;22958;51.232;6.826;2023-01-10T07:53:21;41.22;;;4.22;;
37049;SDS011;22958;51.232;6.826;2023-01-10T07:55:47;38.87;;;5.27;;
37049;SDS011;22958;51.232;6.826;2023-01-10T07:58:12;41.63;;;5.90;;
37049;SDS011;22958;51.232;6.826;2023-01-10T08:00:38;36.20;;;4.50;;
37049;SDS011;22958;51.232;6.826;2023-01-10T08:03:04;32.75;;;4.40;;
37049;SDS011;22958;51.232;6.826;2023-01-10T08:05:30;49.23;;;5.27;;
37049;SDS011;22958;51.232;6.826;2023-01-10T08:07:57;40.63;;;5.63;;
37049;SDS011;22958;51.232;6.826;2023-01-10T08:10:28;33.33;;;5.25;;
37049;SDS011;22958;51.232;6.826;2023-01-10T08:12:54;32.30;;;4.73;;
37049;SDS011;22958;51.232;6.826;2023-01-10T08:15:19;42.00;;;6.73;;
37049;SDS011;22958;51.232;6.826;2023-01-10T08:17:45;48.83;;;5.10;;
37049;SDS011;22958;51.232;6.826;2023-01-10T08:20:11;40.30;;;5.33;;
37049;SDS011;22958;51.232;6.826;2023-01-10T08:22:36;38.53;;;4.93;;
37049;SDS011;22958;51.232;6.826;2023-01-10T08:25:02;33.33;;;4.43;;
37049;SDS011;22958;51.232;6.826;2023-01-10T08:27:28;34.73;;;5.43;;
37049;SDS011;22958;51.232;6.826;2023-01-10T08:29:53;30.20;;;4.53;;
37049;SDS011;22958;51.232;6.826;2023-01-10T08:32:19;60.33;;;5.37;;
37049;SDS011;22958;51.232;6.826;2023-01-10T08:34:44;34.10;;;4.57;;
37049;SDS011;22958;51.232;6.826;2023-01-10T08:37:11;32.60;;;5.13;;
37049;SDS011;22958;51.232;6.826;2023-01-10T08:39:37;41.25;;;4.88;;
37049;SDS011;22958;51.232;6.826;2023-01-10T08:42:03;32.70;;;4.90;;
37049;SDS011;22958;51.232;6.826;2023-01-10T08:44:29;40.67;;;5.70;;
37049;SDS011;22958;51.232;6.826;2023-01-10T08:46:55;45.03;;;5.00;;
37049;SDS011;22958;51.232;6.826;2023-01-10T08:49:20;46.77;;;5.13;;
37049;SDS011;22958;51.232;6.826;2023-01-10T08:51:46;40.27;;;4.93;;
37049;SDS011;22958;51.232;6.826;2023-01-10T08:54:12;38.20;;;4.37;;
37049;SDS011;22958;51.232;6.826;2023-01-10T08:56:38;42.53;;;5.40;;
37049;SDS011;22958;51.232;6.826;2023-01-10T08:59:04;40.38;;;4.22;;
37049;SDS011;22958;51.232;6.826;2023-01-10T09:01:30;33.38;;;5.97;;
37049;SDS011;22958;51.232;6.826;2023-01-10T09:03:55;33.33;;;3.90;;
37049;SDS011;22958;51.232;6.826;2023-01-10T09:06:21;32.13;;;4.57;;
37049;SDS011;22958;51.232;6.826;2023-01-10T09:08:48;39.33;;;4.97;;
37049;SDS011;22958;51.232;6.826;2023-01-10T09:11:13;55.40;;;4.47;;
37049;SDS011;22958;51.232;6.826;2023-01-10T09:13:39;28.57;;;4.57;;
37049;SDS011;22958;51.232;6.826;2023-01-10T09:16:05;39.27;;;4.53;;
37049;SDS011;22958;51.232;6.826;2023-01-10T09:18:30;44.73;;;5.60;;
37049;SDS011;22958;51.232;6.826;2023-01-10T09:20:56;44.40;;;4.27;;
37049;SDS011;22958;51.232;6.826;2023-01-10T09:23:21;47.43;;;4.60;;
37049;SDS011;22958;51.232;6.826;2023-01-10T09:25:48;37.10;;;5.20;;
37049;SDS011;22958;51.232;6.826;2023-01-10T09:28:16;42.45;;;4.22;;
37049;SDS011;22958;51.232;6.826;2023-01-10T09:30:42;46.67;;;4.85;;
37049;SDS011;22958;51.232;6.826;2023-01-10T09:33:08;47.70;;;4.90;;
37049;SDS011;22958;51.232;6.826;2023-01-10T09:35:35;34.08;;;3.90;;
37049;SDS011;22958;51.232;6.826;2023-01-10T09:38:02;34.97;;;5.22;;
37049;SDS011;22958;51.232;6.826;2023-01-10T09:40:40;47.17;;;6.63;;
37049;SDS011;22958;51.232;6.826;2023-01-10T09:52:12;40.93;;;4.37;;
37049;SDS011;22958;51.232;6.826;2023-01-10T09:54:46;38.08;;;5.25;;
37049;SDS011;22958;51.232;6.826;2023-01-10T10:05:33;25.90;;;4.35;;
37049;SDS011;22958;51.232;6.826;2023-01-10T10:07:59;32.37;;;5.90;;
37049;SDS011;22958;51.232;6.826;2023-01-10T10:10:39;41.65;;;5.50;;
37049;SDS011;22958;51.232;6.826;2023-01-10T10:18:27;32.25;;;4.40;;
37049;SDS011;22958;51.232;6.826;2023-01-10T10:21:11;29.33;;;4.03;;
37049;SDS011;22958;51.232;6.826;2023-01-10T10:26:58;45.72;;;5.07;;
37049;SDS011;22958;51.232;6.826;2023-01-10T10:32:49;42.30;;;5.03;;
37049;SDS011;22958;51.232;6.826;2023-01-10T10:37:55;37.42;;;5.78;;
37049;SDS011;22958;51.232;6.826;2023-01-10T10:40:27;46.08;;;5.35;;
37049;SDS011;22958;51.232;6.826;2023-01-10T10:42:58;36.25;;;4.43;;
37049;SDS011;22958;51.232;6.826;2023-01-10T10:45:40;43.10;;;5.72;;
37049;SDS011;22958;51.232;6.826;2023-01-10T10:48:20;26.20;;;4.78;;
37049;SDS011;22958;51.232;6.826;2023-01-10T10:50:57;38.40;;;4.40;;
37049;SDS011;22958;51.232;6.826;2023-01-10T10:53:36;31.77;;;5.53;;
37049;SDS011;22958;51.232;6.826;2023-01-10T10:56:02;29.53;;;4.83;;
37049;SDS011;22958;51.232;6.826;2023-01-10T10:58:30;35.15;;;4.80;;
37049;SDS011;22958;51.232;6.826;2023-01-10T11:00:59;44.47;;;4.28;;
37049;SDS011;22958;51.232;6.826;2023-01-10T11:03:30;31.08;;;4.70;;
37049;SDS011;22958;51.232;6.826;2023-01-10T11:06:04;31.75;;;4.60;;
37049;SDS011;22958;51.232;6.826;2023-01-10T11:08:31;38.80;;;4.00;;
37049;SDS011;22958;51.232;6.826;2023-01-10T11:11:05;39.17;;;4.45;;
37049;SDS011;22958;51.232;6.826;2023-01-10T11:13:46;25.15;;;3.53;;
37049;SDS011;22958;51.232;6.826;2023-01-10T11:19:12;33.65;;;4.28;;
37049;SDS011;22958;51.232;6.826;2023-01-10T11:21:55;41.53;;;5.25;;
37049;SDS011;22958;51.232;6.826;2023-01-10T11:24:22;33.53;;;4.53;;
37049;SDS011;22958;51.232;6.826;2023-01-10T11:27:14;28.05;;;3.75;;
37049;SDS011;22958;51.232;6.826;2023-01-10T11:29:42;31.25;;;4.88;;
37049;SDS011;22958;51.232;6.826;2023-01-10T11:32:12;30.40;;;3.90;;
37049;SDS011;22958;51.232;6.826;2023-01-10T11:34:41;32.92;;;4.43;;
37049;SDS011;22958;51.232;6.826;2023-01-10T11:37:24;23.58;;;3.67;;
37049;SDS011;22958;51.232;6.826;2023-01-10T11:40:06;32.13;;;3.80;;
37049;SDS011;22958;51.232;6.826;2023-01-10T11:42:44;31.95;;;4.30;;
37049;SDS011;22958;51.232;6.826;2023-01-10T11:50:18;29.10;;;3.97;;
37049;SDS011;22958;51.232;6.826;2023-01-10T11:52:49;32.10;;;5.07;;
37049;SDS011;22958;51.232;6.826;2023-01-10T11:55:19;43.40;;;4.90;;
37049;SDS011;22958;51.232;6.826;2023-01-10T11:57:53;27.60;;;4.20;;
37049;SDS011;22958;51.232;6.826;2023-01-10T12:00:42;34.60;;;4.70;;
37049;SDS011;22958;51.232;6.826;2023-01-10T12:03:20;28.13;;;4.10;;
37049;SDS011;22958;51.232;6.826;2023-01-10T12:06:08;25.20;;;3.53;;
37049;SDS011;22958;51.232;6.826;2023-01-10T12:08:39;37.75;;;4.45;;
37049;SDS011;22958;51.232;6.826;2023-01-10T12:13:50;34.72;;;3.97;;
37049;SDS011;22958;51.232;6.826;2023-01-10T12:18:47;28.38;;;3.63;;
37049;SDS011;22958;51.232;6.826;2023-01-10T12:21:14;29.15;;;4.30;;
37049;SDS011;22958;51.232;6.826;2023-01-10T12:23:43;33.13;;;7.63;;
37049;SDS011;22958;51.232;6.826;2023-01-10T12:26:11;38.35;;;4.18;;
37049;SDS011;22958;51.232;6.826;2023-01-10T12:28:38;26.35;;;3.80;;
37049;SDS011;22958;51.232;6.826;2023-01-10T12:31:12;33.72;;;5.38;;
37049;SDS011;22958;51.232;6.826;2023-01-10T12:33:41;33.45;;;5.72;;
37049;SDS011;22958;51.232;6.826;2023-01-10T12:39:05;25.03;;;3.97;;
37049;SDS011;22958;51.232;6.826;2023-01-10T12:41:45;39.25;;;4.22;;
37049;SDS011;22958;51.232;6.826;2023-01-10T12:44:40;25.02;;;4.57;;
37049;SDS011;22958;51.232;6.826;2023-01-10T12:52:57;29.80;;;3.35;;
37049;SDS011;22958;51.232;6.826;2023-01-10T12:55:25;24.90;;;3.53;;
37049;SDS011;22958;51.232;6.826;2023-01-10T12:57:55;27.67;;;4.18;;
37049;SDS011;22958;51.232;6.826;2023-01-10T13:00:26;28.98;;;3.60;;
37049;SDS011;22958;51.232;6.826;2023-01-10T13:03:02;23.05;;;2.90;;
37049;SDS011;22958;51.232;6.826;2023-01-10T13:05:34;35.20;;;3.42;;
37049;SDS011;22958;51.232;6.826;2023-01-10T13:08:05;24.23;;;3.73;;
37049;SDS011;22958;51.232;6.826;2023-01-10T13:10:37;26.40;;;3.78;;
37049;SDS011;22958;51.232;6.826;2023-01-10T13:16:13;29.20;;;4.25;;
37049;SDS011;22958;51.232;6.826;2023-01-10T13:19:01;32.75;;;3.38;;
37049;SDS011;22958;51.232;6.826;2023-01-10T13:21:47;29.05;;;4.03;;
37049;SDS011;22958;51.232;6.826;2023-01-10T13:24:23;17.65;;;3.38;;
37049;SDS011;22958;51.232;6.826;2023-01-10T13:29:23;20.08;;;2.83;;
37049;SDS011;22958;51.232;6.826;2023-01-10T13:32:02;17.67;;;2.88;;
37049;SDS011;22958;51.232;6.826;2023-01-10T13:34:45;27.88;;;3.42;;
37049;SDS011;22958;51.232;6.826;2023-01-10T13:37:12;21.05;;;2.80;;
37049;SDS011;22958;51.232;6.826;2023-01-10T13:39:49;19.08;;;3.90;;
37049;SDS011;22958;51.232;6.826;2023-01-10T13:42:30;24.10;;;3.42;;
37049;SDS011;22958;51.232;6.826;2023-01-10T13:45:17;26.70;;;3.20;;
37049;SDS011;22958;51.232;6.826;2023-01-10T14:08:54;33.15;;;3.85;;
37049;SDS011;22958;51.232;6.826;2023-01-10T14:11:47;27.33;;;2.85;;
37049;SDS011;22958;51.232;6.826;2023-01-10T14:19:45;20.83;;;3.08;;
37049;SDS011;22958;51.232;6.826;2023-01-10T14:22:24;18.85;;;3.33;;
37049;SDS011;22958;51.232;6.826;2023-01-10T14:24:54;33.58;;;4.63;;
37049;SDS011;22958;51.232;6.826;2023-01-10T14:27:22;27.25;;;3.97;;
37049;SDS011;22958;51.232;6.826;2023-01-10T14:29:55;25.55;;;4.00;;
37049;SDS011;22958;51.232;6.826;2023-01-10T14:32:30;37.58;;;5.32;;
37049;SDS011;22958;51.232;6.826;2023-01-10T14:34:59;31.77;;;3.35;;
37049;SDS011;22958;51.232;6.826;2023-01-10T14:37:31;18.85;;;2.75;;
37049;SDS011;22958;51.232;6.826;2023-01-10T14:42:49;17.85;;;3.28;;
37049;SDS011;22958;51.232;6.826;2023-01-10T14:45:27;28.83;;;3.95;;
37049;SDS011;22958;51.232;6.826;2023-01-10T14:48:16;25.45;;;2.92;;
37049;SDS011;22958;51.232;6.826;2023-01-10T14:50:46;18.73;;;2.72;;
37049;SDS011;22958;51.232;6.826;2023-01-10T14:53:24;20.07;;;3.17;;
37049;SDS011;22958;51.232;6.826;2023-01-10T14:55:51;25.88;;;3.55;;
37049;SDS011;22958;51.232;6.826;2023-01-10T14:58:17;19.03;;;3.43;;
37049;SDS011;22958;51.232;6.826;2023-01-10T15:00:43;28.17;;;5.03;;
37049;SDS011;22958;51.232;6.826;2023-01-10T15:03:15;27.33;;;4.13;;
37049;SDS011;22958;51.232;6.826;2023-01-10T15:05:48;23.13;;;3.28;;
37049;SDS011;22958;51.232;6.826;2023-01-10T15:10:47;19.95;;;3.97;;
37049;SDS011;22958;51.232;6.826;2023-01-10T15:13:16;25.35;;;3.05;;
37049;SDS011;22958;51.232;6.826;2023-01-10T15:15:45;20.42;;;3.95;;
37049;SDS011;22958;51.232;6.826;2023-01-10T15:18:26;33.28;;;4.50;;
37049;SDS011;22958;51.232;6.826;2023-01-10T15:21:04;21.20;;;3.95;;
37049;SDS011;22958;51.232;6.826;2023-01-10T15:23:34;25.50;;;3.03;;
37049;SDS011;22958;51.232;6.826;2023-01-10T15:26:02;21.40;;;3.90;;
37049;SDS011;22958;51.232;6.826;2023-01-10T15:28:41;30.88;;;3.58;;
37049;SDS011;22958;51.232;6.826;2023-01-10T15:31:12;16.75;;;2.42;;
37049;SDS011;22958;51.232;6.826;2023-01-10T15:33:40;26.48;;;3.78;;
37049;SDS011;22958;51.232;6.826;2023-01-10T15:36:14;25.52;;;3.10;;
37049;SDS011;22958;51.232;6.826;2023-01-10T15:38:44;26.25;;;3.17;;
37049;SDS011;22958;51.232;6.826;2023-01-10T15:41:15;22.58;;;3.22;;
37049;SDS011;22958;51.232;6.826;2023-01-10T15:43:43;21.63;;;3.38;;
37049;SDS011;22958;51.232;6.826;2023-01-10T15:46:16;27.05;;;3.38;;
37049;SDS011;22958;51.232;6.826;2023-01-10T15:48:57;19.42;;;2.80;;
37049;SDS011;22958;51.232;6.826;2023-01-10T15:51:36;20.13;;;3.15;;
37049;SDS011;22958;51.232;6.826;2023-01-10T15:56:47;23.30;;;6.05;;
37049;SDS011;22958;51.232;6.826;2023-01-10T15:59:33;24.95;;;4.15;;
37049;SDS011;22958;51.232;6.826;2023-01-10T16:04:35;26.60;;;3.45;;
37049;SDS011;22958;51.232;6.826;2023-01-10T16:07:05;43.88;;;4.97;;
37049;SDS011;22958;51.232;6.826;2023-01-10T16:09:46;31.10;;;3.92;;
37049;SDS011;22958;51.232;6.826;2023-01-10T16:12:26;30.63;;;3.70;;
37049;SDS011;22958;51.232;6.826;2023-01-10T16:15:17;20.60;;;3.83;;
37049;SDS011;22958;51.232;6.826;2023-01-10T16:17:46;27.33;;;4.57;;
37049;SDS011;22958;51.232;6.826;2023-01-10T16:20:13;22.60;;;3.63;;
37049;SDS011;22958;51.232;6.826;2023-01-10T16:22:40;18.33;;;4.20;;
37049;SDS011;22958;51.232;6.826;2023-01-10T16:25:10;34.67;;;4.50;;
37049;SDS011;22958;51.232;6.826;2023-01-10T16:27:38;27.35;;;3.80;;
37049;SDS011;22958;51.232;6.826;2023-01-10T16:30:03;17.43;;;3.87;;
37049;SDS011;22958;51.232;6.826;2023-01-10T16:32:29;31.53;;;5.27;;
37049;SDS011;22958;51.232;6.826;2023-01-10T16:34:55;32.13;;;4.33;;
37049;SDS011;22958;51.232;6.826;2023-01-10T16:37:20;38.57;;;4.83;;
37049;SDS011;22958;51.232;6.826;2023-01-10T16:39:46;31.03;;;5.30;;
37049;SDS011;22958;51.232;6.826;2023-01-10T16:42:11;28.13;;;4.37;;
37049;SDS011;22958;51.232;6.826;2023-01-10T16:44:55;29.98;;;5.15;;
37049;SDS011;22958;51.232;6.826;2023-01-10T16:47:22;31.17;;;3.92;;
37049;SDS011;22958;51.232;6.826;2023-01-10T16:49:47;24.23;;;4.47;;
37049;SDS011;22958;51.232;6.826;2023-01-10T16:52:13;29.17;;;4.33;;
37049;SDS011;22958;51.232;6.826;2023-01-10T16:54:38;32.30;;;4.43;;
37049;SDS011;22958;51.232;6.826;2023-01-10T16:57:04;28.33;;;4.70;;
37049;SDS011;22958;51.232;6.826;2023-01-10T16:59:29;29.30;;;4.37;;
37049;SDS011;22958;51.232;6.826;2023-01-10T17:01:55;20.23;;;4.23;;
37049;SDS011;22958;51.232;6.826;2023-01-10T17:04:23;21.40;;;4.22;;